Webcam Rollhalt 06

Webcam Rollhalt 24

 

Flugplatz - Wetter - Augsburg

[Quelle: ADDS]
METAR
EDMA 140320Z AUTO 13002KT 9999 // NCD M01/M02 Q1004 =
EDMA 131700Z 1318/1403 21005KT CAVOK BECMG 1320/1322 13004KT
TAF
EDMA 131700Z 1318/1403 21005KT CAVOK BECMG 1320/1322 13004KT =
SR / SS: 06:22 / 15:41 UTC (Augsburg 2019-11-14)

Flugplatz - Wetter - Laupheim

[Quelle: ADDS]
METAR
ETHL 140320Z 04003KT 9999 M02/M03 Q1002 BLU+ =
ETHL 132021Z 1321/1406 23007KT 9999 NSW FEW080 CANCEL 2030
TAF
ETHL 132021Z 1321/1406 23007KT 9999 NSW FEW080 CANCEL 2030 =
SR / SS: 06:26 / 15:45 UTC (Laupheim 2019-11-14)

Flugplatz - Wetter - Memmingen

[Quelle: ADDS]
METAR
EDJA 140320Z AUTO 01003KT 9999 // NCD M03/M03 Q1002 =
EDJA 131700Z 1318/1403 19005KT CAVOK BECMG 1323/1401 13004KT
TAF
EDJA 131700Z 1318/1403 19005KT CAVOK BECMG 1323/1401 13004KT =
SR / SS: 06:22 / 15:45 UTC (Memmingen 2019-11-14)

Flugplatz - Wetter - Neuburg/Donau

[Quelle: ADDS]
METAR
ETSN 140320Z 03002KT 9999 VCFG M02/M02 Q1004 BLU+ =
ETSN 140220Z 1403/1412 09005KT 9999 MIFG SCT060 TEMPO 1403/1409 08005KT 3000 BCFG FEW060 PROB30 1403/1409 VRB03KT 0500 FZFG VV001 BY ETGL
TAF
ETSN 140220Z 1403/1412 09005KT 9999 MIFG SCT060 TEMPO 1403/1409 08005KT 3000 BCFG FEW060 PROB30 1403/1409 VRB03KT 0500 FZFG VV001 BY ETGL =
SR / SS: 06:21 / 15:38 UTC (Neuburg 2019-11-14)

Flugplatz - Wetter - Stuttgart

[Quelle: ADDS]
METAR
EDDS 140320Z 00000KT CAVOK M01/M02 Q1002 =
EDDS 132300Z 1400/1424 09003KT CAVOK PROB30 TEMPO 1403/1408 3000 BCFG
TAF
EDDS 132300Z 1400/1424 09003KT CAVOK PROB30 TEMPO 1403/1408 3000 BCFG =
SR / SS: 06:29 / 15:46 UTC (Stuttgart 2019-11-14)

Flugplatz - Wetter - Niederstetten

[Quelle: ADDS]
METAR
ETHN 140320Z 12006KT 9999 FEW210 M00/M01 Q1003 BLU+ =
AMD ETHN 131904Z 1315/1324 23007KT 9999 NSW FEW010 BKN020 TEMPO 1315/1319 23007KT 7000 -RA BKN010 BECMG 1319/1321 23007KT 9999 NSW BKN035 CANCEL 1920
TAF
AMD ETHN 131904Z 1315/1324 23007KT 9999 NSW FEW010 BKN020 TEMPO 1315/1319 23007KT 7000 -RA BKN010 BECMG 1319/1321 23007KT 9999 NSW BKN035 CANCEL 1920 =
SR / SS: 06:29 / 15:42 UTC (Niederstetten 2019-11-14)